Reading, United Kingdom
Current Conditions -  °F | °C
As of 8:50 AM on Monday 22 Dec 2014 (Local Time) from EGUB Reporting Station
Overcast Overcast  
Wind Chill: 12°   Ceiling: 2600
Heat Index: 12°   Visibility: 6mi
Dew Point:   Wind: 18mph
Humidity: 77%   Direction: 230°SW
Pressure: 30.06"   Gusts: NA
Location:  51.45°N, 0.99°W
Report Text: EGUB 220850Z AUTO 23016KT 9999 // OVC026/// 12/08 Q1018
Loading
Personal Weather Stations






























Interactive Weather Map New forecast layout! Learn more

10-Day Weather Forecast

Advertisements
Track Severe Weather on mobile